Time;durP1;ratioP1;P1;durP2;ratioP2;P2;SDS_P1;SDS_P2;PMS_P1;PMS_P2;Temp;Humidity;BMP_temperature;BMP_pressure;BME280_temperature;BME280_humidity;BME280_pressure;Samples;Min_cycle;Max_cycle;Signal;HPM_P1;HPM_P2
2022/10/14 00:00:31;;;;;;;;;;;;;;;11.27;67.73;101434.91;5042547;28;19928;-60
2022/10/14 00:02:57;;;;;;;;;;;;;;;11.26;67.76;101428.81;5044886;28;20432;-66
2022/10/14 00:05:22;;;;;;;;;;;;;;;11.24;67.59;101430.66;5043250;28;19929;-58
2022/10/14 00:07:47;;;;;;;;;;;;;;;11.22;67.64;101427.25;5036176;28;19925;-64
2022/10/14 00:10:13;;;;;;;;;;;;;;;11.19;67.66;101432.66;5038294;28;20053;-58
2022/10/14 00:12:38;;;;;;;;;;;;;;;11.17;67.67;101426.59;5042439;28;19929;-63
2022/10/14 00:15:04;;;;;;;;;;;;;;;11.16;67.90;101427.53;5044274;28;19929;-62
2022/10/14 00:17:29;;;;;;;;;;;;;;;11.15;67.69;101425.00;5045462;28;19920;-61
2022/10/14 00:19:55;;;;;;;;;;;;;;;11.15;67.68;101425.81;5038977;28;19927;-63
2022/10/14 00:22:20;;;;;;;;;;;;;;;11.13;67.74;101412.75;5043220;28;20328;-63
2022/10/14 00:24:48;;;;;;;;;;;;;;;11.12;67.68;101407.53;5046805;28;19920;-62
2022/10/14 00:27:13;;;;;;;;;;;;;;;11.10;67.85;101412.06;5040498;28;19973;-61
2022/10/14 00:29:38;;;;;;;;;;;;;;;11.08;67.87;101414.75;5048995;28;19925;-61
2022/10/14 00:32:04;;;;;;;;;;;;;;;11.08;67.86;101409.47;5043134;28;19998;-58
2022/10/14 00:34:29;;;;;;;;;;;;;;;11.09;67.84;101415.63;5040039;28;19944;-62
2022/10/14 00:36:54;;;;;;;;;;;;;;;11.09;67.84;101415.63;5044867;28;19925;-62
2022/10/14 00:39:20;;;;;;;;;;;;;;;11.09;67.84;101410.34;5055625;28;19925;-62
2022/10/14 00:41:46;;;;;;;;;;;;;;;11.10;67.90;101422.59;5041596;28;19916;-61
2022/10/14 00:44:14;;;;;;;;;;;;;;;11.09;67.78;101412.97;5039191;28;20023;-62
2022/10/14 00:46:40;;;;;;;;;;;;;;;11.09;67.69;101413.81;5036228;28;20377;-60
2022/10/14 00:49:12;;;;;;;;;;;;;;;11.09;67.69;101415.63;5047798;28;19998;-58
2022/10/14 00:51:38;;;;;;;;;;;;;;;11.08;67.71;101411.28;5039422;28;19960;-61
2022/10/14 00:54:04;;;;;;;;;;;;;;;11.07;67.75;101413.03;5040173;28;20301;-60
2022/10/14 00:56:30;;;;;;;;;;;;;;;11.08;67.82;101419.16;5042382;28;19924;-65
2022/10/14 00:58:56;;;;;;;;;;;;;;;11.06;67.86;101416.59;5047638;28;19916;-64
2022/10/14 01:01:21;;;;;;;;;;;;;;;11.07;67.83;101417.47;5047032;28;19925;-61
2022/10/14 01:03:47;;;;;;;;;;;;;;;11.08;67.97;101416.53;5050942;28;20062;-59
2022/10/14 01:06:12;;;;;;;;;;;;;;;11.09;67.76;101407.72;5046824;28;20023;-60
2022/10/14 01:08:40;;;;;;;;;;;;;;;11.08;67.87;101409.47;5042411;28;19925;-61
2022/10/14 01:11:08;;;;;;;;;;;;;;;11.08;67.87;101403.38;5048063;28;20393;-61
2022/10/14 01:13:35;;;;;;;;;;;;;;;11.08;67.80;101408.63;5048318;28;20044;-62
2022/10/14 01:16:01;;;;;;;;;;;;;;;11.08;67.86;101392.84;5044710;28;19931;-59
2022/10/14 01:18:26;;;;;;;;;;;;;;;11.06;67.79;101395.53;5043520;28;19917;-62
2022/10/14 01:21:05;;;;;;;;;;;;;;;11.06;67.99;101392.06;5044488;28;20275;-62
2022/10/14 01:23:37;;;;;;;;;;;;;;;11.04;67.84;101386.00;5044423;28;19968;-60
2022/10/14 01:26:14;;;;;;;;;;;;;;;11.02;67.81;101382.59;5036789;28;19964;-62
2022/10/14 01:28:53;;;;;;;;;;;;;;;11.01;67.80;101380.88;5044830;28;20023;-62
2022/10/14 01:31:22;;;;;;;;;;;;;;;11.00;67.89;101382.69;5040397;28;19920;-60
2022/10/14 01:33:50;;;;;;;;;;;;;;;10.99;67.81;101373.06;5042342;28;19925;-60
2022/10/14 01:36:19;;;;;;;;;;;;;;;10.95;68.06;101382.91;5038792;28;19921;-61
2022/10/14 01:38:54;;;;;;;;;;;;;;;10.94;67.85;101386.47;5036198;28;20425;-63
2022/10/14 01:41:26;;;;;;;;;;;;;;;10.92;67.79;101385.69;5025604;28;19924;-58
2022/10/14 01:43:53;;;;;;;;;;;;;;;10.91;67.94;101391.88;5038310;28;19927;-64
2022/10/14 01:46:21;;;;;;;;;;;;;;;10.91;67.97;101386.63;5042156;28;19925;-58
2022/10/14 01:48:52;;;;;;;;;;;;;;;10.93;67.92;101390.03;5042596;28;19970;-58
2022/10/14 01:51:21;;;;;;;;;;;;;;;10.95;67.88;101393.44;5037222;28;19943;-63
2022/10/14 01:53:53;;;;;;;;;;;;;;;10.96;67.72;101384.63;5041407;28;20421;-59
2022/10/14 01:56:19;;;;;;;;;;;;;;;10.97;67.92;101382.81;5047369;28;19985;-61
2022/10/14 01:58:45;;;;;;;;;;;;;;;11.00;67.86;101384.44;5044971;28;19916;-59
2022/10/14 02:01:10;;;;;;;;;;;;;;;11.01;67.72;101386.16;5041658;28;20016;-63
2022/10/14 02:03:40;;;;;;;;;;;;;;;11.02;67.84;101382.59;5042811;28;19925;-60
2022/10/14 02:06:10;;;;;;;;;;;;;;;11.02;67.74;101382.59;5045201;28;19924;-63
2022/10/14 02:08:59;;;;;;;;;;;;;;;11.02;67.96;101377.31;5036659;28;19925;-61
2022/10/14 02:11:24;;;;;;;;;;;;;;;11.04;67.89;101373.69;5035452;28;20374;-60
2022/10/14 02:13:58;;;;;;;;;;;;;;;11.04;67.82;101386.84;5049035;28;19927;-64
2022/10/14 02:16:24;;;;;;;;;;;;;;;11.05;68.05;101371.91;5043821;28;20398;-60
2022/10/14 02:19:00;;;;;;;;;;;;;;;11.07;67.84;101376.16;5043551;28;19920;-61
2022/10/14 02:21:28;;;;;;;;;;;;;;;11.09;67.93;101376.94;5041325;28;19917;-60
2022/10/14 02:23:59;;;;;;;;;;;;;;;11.12;68.01;101381.19;5037332;28;19925;-65
2022/10/14 02:26:25;;;;;;;;;;;;;;;11.13;68.04;101373.22;5044372;28;19924;-62
2022/10/14 02:28:52;;;;;;;;;;;;;;;11.16;68.03;101379.28;5045096;28;20457;-64
2022/10/14 02:31:18;;;;;;;;;;;;;;;11.18;67.94;101373.00;5058510;28;19943;-62
2022/10/14 02:33:46;;;;;;;;;;;;;;;11.20;68.07;101379.06;5046415;28;19932;-59
2022/10/14 02:36:12;;;;;;;;;;;;;;;11.22;67.89;101384.22;5043830;28;19931;-58
2022/10/14 02:38:39;;;;;;;;;;;;;;;11.23;68.01;101375.41;5045439;28;19971;-63
2022/10/14 02:41:07;;;;;;;;;;;;;;;11.26;68.08;101376.13;5048109;28;20476;-60
2022/10/14 02:43:32;;;;;;;;;;;;;;;11.27;68.29;101374.31;5043368;28;19924;-59
2022/10/14 02:45:59;;;;;;;;;;;;;;;11.28;68.03;101371.59;5045433;28;19932;-58
2022/10/14 02:48:24;;;;;;;;;;;;;;;11.30;68.24;101371.53;5051008;28;20345;-62
2022/10/14 02:50:50;;;;;;;;;;;;;;;11.31;68.13;101361.84;5048332;28;20445;-60
2022/10/14 02:53:16;;;;;;;;;;;;;;;11.33;68.31;101357.34;5040630;28;19921;-59
2022/10/14 02:55:41;;;;;;;;;;;;;;;11.32;68.08;101360.91;5045003;28;20353;-61
2022/10/14 02:58:06;;;;;;;;;;;;;;;11.33;68.34;101370.53;5051560;28;19920;-63
2022/10/14 03:00:32;;;;;;;;;;;;;;;11.34;68.14;101361.69;5049814;28;20425;-60
2022/10/14 03:02:57;;;;;;;;;;;;;;;11.33;68.27;101359.97;5049187;28;20516;-64
2022/10/14 03:05:22;;;;;;;;;;;;;;;11.31;68.34;101361.84;5050241;28;20386;-62
2022/10/14 03:07:48;;;;;;;;;;;;;;;11.28;68.38;101366.31;5045191;28;19931;-59
2022/10/14 03:10:13;;;;;;;;;;;;;;;11.26;68.18;101362.06;5050325;28;19921;-61
2022/10/14 03:12:38;;;;;;;;;;;;;;;11.23;68.33;101365.72;5037580;28;19967;-58
2022/10/14 03:15:04;;;;;;;;;;;;;;;11.22;68.27;101365.78;5046442;28;19924;-61
2022/10/14 03:17:29;;;;;;;;;;;;;;;11.21;68.41;101364.94;5044908;28;19933;-62
2022/10/14 03:19:54;;;;;;;;;;;;;;;11.21;68.41;101367.59;5045063;28;19964;-63
2022/10/14 03:22:20;;;;;;;;;;;;;;;11.21;68.31;101370.22;5040922;28;19921;-62
2022/10/14 03:24:45;;;;;;;;;;;;;;;11.19;68.43;101374.72;5042695;28;19975;-64
2022/10/14 03:27:10;;;;;;;;;;;;;;;11.19;68.29;101372.06;5045029;28;20471;-62
2022/10/14 03:29:36;;;;;;;;;;;;;;;11.19;68.31;101365.97;5046236;28;19921;-63
2022/10/14 03:32:01;;;;;;;;;;;;;;;11.18;68.37;101365.09;5040972;28;19917;-63
2022/10/14 03:34:26;;;;;;;;;;;;;;;11.19;68.57;101358.91;5040349;28;20063;-64
2022/10/14 03:36:51;;;;;;;;;;;;;;;11.19;68.35;101350.16;5041324;28;20176;-61
2022/10/14 03:39:17;;;;;;;;;;;;;;;11.20;68.49;101349.19;5038225;28;19921;-61
2022/10/14 03:41:42;;;;;;;;;;;;;;;11.20;68.48;101349.19;5038320;28;20502;-61
2022/10/14 03:44:08;;;;;;;;;;;;;;;11.19;68.37;101350.16;5042122;28;19986;-60
2022/10/14 03:46:33;;;;;;;;;;;;;;;11.19;68.57;101351.00;5040275;28;20187;-63
2022/10/14 03:48:58;;;;;;;;;;;;;;;11.20;68.54;101355.34;5040750;28;19936;-63
2022/10/14 03:51:24;;;;;;;;;;;;;;;11.20;68.51;101360.59;5038897;28;19919;-62
2022/10/14 03:53:49;;;;;;;;;;;;;;;11.20;68.54;101365.88;5040203;28;19928;-61
2022/10/14 03:56:14;;;;;;;;;;;;;;;11.19;68.50;101355.44;5047032;28;19921;-62
2022/10/14 03:58:40;;;;;;;;;;;;;;;11.20;68.50;101365.88;5040942;28;19921;-61
2022/10/14 04:01:05;;;;;;;;;;;;;;;11.22;68.45;101355.25;5039369;28;19924;-61
2022/10/14 04:03:30;;;;;;;;;;;;;;;11.20;68.55;101354.47;5042655;28;19956;-64
2022/10/14 04:05:56;;;;;;;;;;;;;;;11.21;68.50;101356.19;5036112;28;19979;-60
2022/10/14 04:08:21;;;;;;;;;;;;;;;11.21;68.66;101361.44;5040057;28;19928;-61
2022/10/14 04:10:53;;;;;;;;;;;;;;;11.22;68.46;101349.97;5032175;28;19925;-62
2022/10/14 04:13:18;;;;;;;;;;;;;;;11.22;68.58;101342.94;5031097;28;19925;-59
2022/10/14 04:15:44;;;;;;;;;;;;;;;11.21;68.57;101346.50;5034066;28;20298;-61
2022/10/14 04:18:09;;;;;;;;;;;;;;;11.22;68.52;101332.41;5039595;28;19923;-59
2022/10/14 04:20:35;;;;;;;;;;;;;;;11.21;68.54;101335.97;5038611;28;20309;-59
2022/10/14 04:23:01;;;;;;;;;;;;;;;11.21;68.57;101329.84;5039143;28;20297;-60
2022/10/14 04:25:26;;;;;;;;;;;;;;;11.20;68.66;101329.00;5037242;28;20416;-60
2022/10/14 04:27:51;;;;;;;;;;;;;;;11.19;68.53;101322.03;5041609;28;19925;-63
2022/10/14 04:30:16;;;;;;;;;;;;;;;11.19;68.44;101321.19;5031613;28;19932;-60
2022/10/14 04:32:42;;;;;;;;;;;;;;;11.17;68.63;101321.25;5031021;28;20023;-64
2022/10/14 04:35:08;;;;;;;;;;;;;;;11.16;68.61;101316.06;5040666;28;19937;-60
2022/10/14 04:37:33;;;;;;;;;;;;;;;11.13;68.47;101311.78;5031139;28;19923;-65
2022/10/14 04:39:59;;;;;;;;;;;;;;;11.12;68.59;101310.09;5033186;28;20302;-56
2022/10/14 04:42:24;;;;;;;;;;;;;;;11.09;68.61;101305.00;5040061;28;19929;-59
2022/10/14 04:44:49;;;;;;;;;;;;;;;11.07;68.63;101312.13;5039429;28;19969;-59
2022/10/14 04:47:15;;;;;;;;;;;;;;;11.02;68.55;101303.59;5045143;28;19924;-60
2022/10/14 04:49:40;;;;;;;;;;;;;;;10.99;68.61;101296.72;5039773;28;19944;-61
2022/10/14 04:52:05;;;;;;;;;;;;;;;10.96;68.57;101297.72;5038653;28;19928;-61
2022/10/14 04:54:30;;;;;;;;;;;;;;;10.93;68.73;101289.97;5043076;28;19929;-60
2022/10/14 04:56:56;;;;;;;;;;;;;;;10.91;68.60;101299.72;5035185;28;19927;-58
2022/10/14 04:59:21;;;;;;;;;;;;;;;10.90;68.59;101294.53;5038030;28;19951;-62
2022/10/14 05:01:46;;;;;;;;;;;;;;;10.89;68.77;101292.84;5036121;28;20364;-61
2022/10/14 05:04:12;;;;;;;;;;;;;;;10.88;68.78;101294.59;5042305;28;19952;-62
2022/10/14 05:06:37;;;;;;;;;;;;;;;10.88;68.79;101299.03;5045951;28;19921;-60
2022/10/14 05:09:04;;;;;;;;;;;;;;;10.87;68.74;101306.06;5045553;28;19920;-62
2022/10/14 05:11:29;;;;;;;;;;;;;;;10.85;68.66;101300.03;5041335;28;20017;-64
2022/10/14 05:13:54;;;;;;;;;;;;;;;10.84;69.07;101300.94;5042898;28;19952;-65
2022/10/14 05:16:20;;;;;;;;;;;;;;;10.81;68.79;101298.50;5045563;28;19925;-63
2022/10/14 05:18:45;;;;;;;;;;;;;;;10.77;68.64;101305.66;5040583;28;20035;-64
2022/10/14 05:21:10;;;;;;;;;;;;;;;10.75;68.84;101304.88;5043269;28;19932;-61
2022/10/14 05:23:36;;;;;;;;;;;;;;;10.74;68.63;101302.34;5043958;28;19932;-59
2022/10/14 05:26:01;;;;;;;;;;;;;;;10.70;68.53;101293.75;5043552;28;19977;-63
2022/10/14 05:28:26;;;;;;;;;;;;;;;10.65;68.70;101307.16;5045180;28;19928;-64
2022/10/14 05:30:51;;;;;;;;;;;;;;;10.61;68.90;101308.22;5044026;28;20167;-61
2022/10/14 05:33:17;;;;;;;;;;;;;;;10.57;68.70;101303.19;5043717;28;20026;-61
2022/10/14 05:35:42;;;;;;;;;;;;;;;10.55;68.67;101316.41;5043197;28;19942;-60
2022/10/14 05:38:08;;;;;;;;;;;;;;;10.53;68.67;101320.88;5043106;28;19921;-62
2022/10/14 05:40:33;;;;;;;;;;;;;;;10.50;68.80;101311.38;5044001;28;20049;-63
2022/10/14 05:42:59;;;;;;;;;;;;;;;10.49;69.04;101311.44;5042799;28;19932;-61
2022/10/14 05:45:25;;;;;;;;;;;;;;;10.49;68.79;101306.19;5041923;28;19968;-62
2022/10/14 05:47:50;;;;;;;;;;;;;;;10.49;68.80;101311.44;5044009;28;20408;-61
2022/10/14 05:50:16;;;;;;;;;;;;;;;10.49;68.93;101316.72;5044813;28;19917;-61
2022/10/14 05:52:41;;;;;;;;;;;;;;;10.48;68.99;101312.38;5042714;28;20531;-61
2022/10/14 05:55:07;;;;;;;;;;;;;;;10.47;68.91;101313.31;5043766;28;20284;-59
2022/10/14 05:57:33;;;;;;;;;;;;;;;10.46;68.94;101311.59;5044800;28;19924;-62
2022/10/14 05:59:58;;;;;;;;;;;;;;;10.45;69.01;101309.88;5042592;28;20032;-63
2022/10/14 06:02:24;;;;;;;;;;;;;;;10.42;68.81;101316.16;5043679;28;20024;-58
2022/10/14 06:04:49;;;;;;;;;;;;;;;10.40;68.86;101323.25;5045660;28;19925;-58
2022/10/14 06:07:14;;;;;;;;;;;;;;;10.37;68.86;101318.13;5045446;28;20503;-61
2022/10/14 06:09:40;;;;;;;;;;;;;;;10.35;68.90;101319.97;5045497;28;19979;-59
2022/10/14 06:12:05;;;;;;;;;;;;;;;10.33;68.93;101316.53;5049103;28;20445;-59
2022/10/14 06:14:30;;;;;;;;;;;;;;;10.32;69.10;101318.34;5044375;28;19932;-63
2022/10/14 06:16:56;;;;;;;;;;;;;;;10.32;69.00;101318.34;5046830;28;19924;-59
2022/10/14 06:19:21;;;;;;;;;;;;;;;10.32;69.16;101328.84;5046597;28;20460;-62
2022/10/14 06:21:46;;;;;;;;;;;;;;;10.33;69.02;101329.69;5042963;28;19920;-63
2022/10/14 06:24:12;;;;;;;;;;;;;;;10.34;68.92;101320.88;5042785;28;20489;-62
2022/10/14 06:26:37;;;;;;;;;;;;;;;10.34;69.00;101328.78;5042288;28;19925;-61
2022/10/14 06:29:02;;;;;;;;;;;;;;;10.35;68.97;101325.22;5047193;28;19920;-65
2022/10/14 06:31:28;;;;;;;;;;;;;;;10.35;68.79;101331.34;5047508;28;19929;-62
2022/10/14 06:33:53;;;;;;;;;;;;;;;10.35;68.96;101326.09;5040156;28;19929;-62
2022/10/14 06:36:18;;;;;;;;;;;;;;;10.36;68.79;101325.13;5039273;28;20311;-59
2022/10/14 06:38:43;;;;;;;;;;;;;;;10.37;68.77;101328.63;5041383;28;19916;-59
2022/10/14 06:41:09;;;;;;;;;;;;;;;10.37;68.74;101328.63;5041929;28;19935;-60
2022/10/14 06:43:34;;;;;;;;;;;;;;;10.37;68.89;101332.09;5039761;28;20387;-61
2022/10/14 06:46:00;;;;;;;;;;;;;;;10.36;68.71;101327.75;5042305;28;19952;-62
2022/10/14 06:48:26;;;;;;;;;;;;;;;10.37;68.85;101334.72;5038397;28;19982;-62
2022/10/14 06:50:52;;;;;;;;;;;;;;;10.36;68.83;101333.03;5040996;28;19924;-64
2022/10/14 06:53:17;;;;;;;;;;;;;;;10.36;68.71;101335.66;5044710;28;19921;-61
2022/10/14 06:55:42;;;;;;;;;;;;;;;10.35;68.65;101333.97;5037101;28;19921;-59
2022/10/14 06:58:08;;;;;;;;;;;;;;;10.35;68.70;101335.75;5039155;28;20457;-64
2022/10/14 07:00:33;;;;;;;;;;;;;;;10.36;68.97;101337.44;5044813;28;19932;-61
2022/10/14 07:02:58;;;;;;;;;;;;;;;10.36;68.83;101333.03;5039689;28;19925;-62
2022/10/14 07:05:24;;;;;;;;;;;;;;;10.37;68.83;101344.41;5043286;28;20320;-61
2022/10/14 07:07:49;;;;;;;;;;;;;;;10.39;68.83;101339.09;5047071;28;19925;-58
2022/10/14 07:10:14;;;;;;;;;;;;;;;10.39;68.81;101345.22;5039897;28;19971;-63
2022/10/14 07:12:40;;;;;;;;;;;;;;;10.39;68.71;101347.88;5047416;28;19923;-62
2022/10/14 07:15:05;;;;;;;;;;;;;;;10.40;68.61;101343.44;5045203;28;19994;-62
2022/10/14 07:17:31;;;;;;;;;;;;;;;10.39;68.83;101337.34;5041596;28;19928;-62
2022/10/14 07:19:56;;;;;;;;;;;;;;;10.40;68.93;101339.03;5041823;28;19956;-61
2022/10/14 07:22:21;;;;;;;;;;;;;;;10.44;68.78;101343.22;5043731;28;19935;-59
2022/10/14 07:24:47;;;;;;;;;;;;;;;10.48;68.73;101341.31;5047126;28;20027;-64
2022/10/14 07:27:14;;;;;;;;;;;;;;;10.52;68.97;101353.38;5042162;28;20378;-59
2022/10/14 07:29:40;;;;;;;;;;;;;;;10.57;68.80;101354.03;5040883;28;19932;-64
2022/10/14 07:32:05;;;;;;;;;;;;;;;10.60;68.96;101351.25;5040122;28;20408;-60
2022/10/14 07:34:32;;;;;;;;;;;;;;;10.65;68.94;101349.25;5046034;28;19996;-58
2022/10/14 07:36:57;;;;;;;;;;;;;;;10.69;68.76;101344.69;5044048;28;19920;-62
2022/10/14 07:39:24;;;;;;;;;;;;;;;10.70;69.05;101345.53;5043299;28;19916;-59
2022/10/14 07:41:50;;;;;;;;;;;;;;;10.73;69.03;101345.38;5038043;28;20374;-61
2022/10/14 07:44:16;;;;;;;;;;;;;;;10.83;69.08;101341.38;5040607;28;19925;-65
2022/10/14 07:46:43;;;;;;;;;;;;;;;10.91;69.06;101352.38;5042008;28;20403;-63
2022/10/14 07:49:16;;;;;;;;;;;;;;;11.00;68.96;101344.94;5040572;28;20618;-61
2022/10/14 07:51:41;;;;;;;;;;;;;;;11.07;68.86;101349.00;5044686;28;19925;-61
2022/10/14 07:54:08;;;;;;;;;;;;;;;11.13;68.96;101339.00;5038935;28;19951;-60
2022/10/14 07:56:34;;;;;;;;;;;;;;;11.20;68.91;101350.06;5036580;28;20342;-65
2022/10/14 07:59:00;;;;;;;;;;;;;;;11.28;68.76;101353.16;5045616;28;19920;-63
2022/10/14 08:01:25;;;;;;;;;;;;;;;11.35;68.85;101355.50;5046199;28;19921;-64
2022/10/14 08:03:51;;;;;;;;;;;;;;;11.42;68.90;101355.09;5041641;28;19936;-67
2022/10/14 08:06:16;;;;;;;;;;;;;;;11.49;68.85;101345.09;5041697;28;19979;-66
2022/10/14 08:08:42;;;;;;;;;;;;;;;11.55;68.78;101352.69;5043753;28;20275;-65
2022/10/14 08:11:11;;;;;;;;;;;;;;;11.61;68.63;101348.00;5042805;28;19925;-63
2022/10/14 08:13:38;;;;;;;;;;;;;;;11.69;68.76;101356.38;5044084;28;19943;-64
2022/10/14 08:16:11;;;;;;;;;;;;;;;11.73;68.71;101353.50;5043531;28;19924;-61
2022/10/14 08:18:36;;;;;;;;;;;;;;;11.79;68.58;101354.13;5041840;28;20031;-61
2022/10/14 08:21:01;;;;;;;;;;;;;;;11.83;68.91;101348.59;5039173;28;20435;-59
2022/10/14 08:23:29;;;;;;;;;;;;;;;11.89;68.67;101344.78;5039859;28;19931;-66
2022/10/14 08:25:54;;;;;;;;;;;;;;;11.94;68.67;101349.78;5041398;28;19931;-64
2022/10/14 08:28:19;;;;;;;;;;;;;;;11.97;68.66;101350.47;5041743;28;19920;-64
2022/10/14 08:30:46;;;;;;;;;;;;;;;12.01;68.75;101348.56;5041449;28;19983;-61
2022/10/14 08:33:13;;;;;;;;;;;;;;;12.06;68.92;101354.44;5040804;28;20031;-64
2022/10/14 08:35:38;;;;;;;;;;;;;;;12.12;68.70;101350.59;5039939;28;20271;-62
2022/10/14 08:38:03;;;;;;;;;;;;;;;12.17;68.62;101356.50;5040239;28;20450;-64
2022/10/14 08:40:32;;;;;;;;;;;;;;;12.21;68.72;101355.38;5040831;28;19928;-62
2022/10/14 08:42:57;;;;;;;;;;;;;;;12.24;68.89;101349.09;5042081;28;20301;-60
2022/10/14 08:45:44;;;;;;;;;;;;;;;12.28;68.95;101355.91;5042005;28;19925;-63
2022/10/14 08:48:16;;;;;;;;;;;;;;;12.33;69.02;101348.56;5041931;28;20005;-62
2022/10/14 08:50:42;;;;;;;;;;;;;;;12.38;68.76;101346.53;5043538;28;20144;-59
2022/10/14 08:53:12;;;;;;;;;;;;;;;12.43;68.83;101349.78;5043854;28;19923;-63
2022/10/14 08:55:39;;;;;;;;;;;;;;;12.48;68.88;101345.06;5043432;28;19920;-65
2022/10/14 08:58:10;;;;;;;;;;;;;;;12.54;68.90;101345.66;5044126;28;20340;-64
2022/10/14 09:00:35;;;;;;;;;;;;;;;12.60;68.94;101338.25;5040779;28;20007;-63
2022/10/14 09:03:04;;;;;;;;;;;;;;;12.65;69.00;101336.22;5040110;28;21105;-64
2022/10/14 09:05:30;;;;;;;;;;;;;;;12.70;68.99;101341.22;5039190;28;19928;-65
2022/10/14 09:07:55;;;;;;;;;;;;;;;12.75;68.93;101336.53;5039998;28;19999;-65
2022/10/14 09:10:31;;;;;;;;;;;;;;;12.80;68.82;101344.19;5042996;28;20308;-63
2022/10/14 09:13:09;;;;;;;;;;;;;;;12.86;68.80;101335.06;5043862;28;20437;-62
2022/10/14 09:15:37;;;;;;;;;;;;;;;12.92;68.82;101332.91;5035350;28;20409;-64
2022/10/14 09:18:05;;;;;;;;;;;;;;;12.98;68.71;101336.16;5036819;28;19943;-64
2022/10/14 09:20:31;;;;;;;;;;;;;;;13.02;68.71;101338.50;5044044;28;20569;-65
2022/10/14 09:23:09;;;;;;;;;;;;;;;13.08;68.48;101343.41;5043393;28;20447;-64
2022/10/14 09:25:36;;;;;;;;;;;;;;;13.12;68.22;101330.91;5049396;28;19944;-64
2022/10/14 09:28:01;;;;;;;;;;;;;;;13.16;68.43;101328.91;5042717;28;20047;-65
2022/10/14 09:30:29;;;;;;;;;;;;;;;13.19;68.59;101328.75;5040550;28;20015;-64
2022/10/14 09:32:54;;;;;;;;;;;;;;;13.22;68.39;101333.84;5044070;28;19932;-65
2022/10/14 09:35:31;;;;;;;;;;;;;;;13.25;68.35;101323.94;5045920;28;19925;-61
2022/10/14 09:37:56;;;;;;;;;;;;;;;13.27;68.43;101326.47;5044627;28;20002;-64
2022/10/14 09:40:33;;;;;;;;;;;;;;;13.29;68.37;101327.25;5042152;28;20359;-63
2022/10/14 09:43:02;;;;;;;;;;;;;;;13.31;68.17;101322.72;5050318;28;19962;-65
2022/10/14 09:45:29;;;;;;;;;;;;;;;13.34;68.29;101329.59;5046528;28;19948;-63
2022/10/14 09:48:02;;;;;;;;;;;;;;;13.36;68.35;101320.66;5044843;28;19917;-64
2022/10/14 09:50:28;;;;;;;;;;;;;;;13.39;68.28;101319.63;5048816;28;19920;-62
2022/10/14 09:52:56;;;;;;;;;;;;;;;13.42;68.45;101324.75;5043499;28;19925;-64
2022/10/14 09:55:23;;;;;;;;;;;;;;;13.48;68.46;101323.53;5046016;28;20441;-64
2022/10/14 09:58:02;;;;;;;;;;;;;;;13.52;68.28;101322.41;5044303;28;19929;-63
2022/10/14 10:00:29;;;;;;;;;;;;;;;13.56;68.27;101322.13;5045240;28;20374;-61
2022/10/14 10:02:54;;;;;;;;;;;;;;;13.59;68.33;101323.72;5046752;28;19924;-63
2022/10/14 10:05:30;;;;;;;;;;;;;;;13.62;68.23;101323.53;5043411;28;20015;-64
2022/10/14 10:08:01;;;;;;;;;;;;;;;13.67;68.00;101318.81;5041518;28;20424;-64
2022/10/14 10:10:30;;;;;;;;;;;;;;;13.69;68.00;101316.91;5045329;28;20309;-65
2022/10/14 10:12:56;;;;;;;;;;;;;;;13.72;67.96;101315.88;5042248;28;19939;-66
2022/10/14 10:15:21;;;;;;;;;;;;;;;13.76;67.85;101313.91;5044767;28;19916;-64
2022/10/14 10:17:47;;;;;;;;;;;;;;;13.78;67.85;101307.56;5050874;28;20211;-65
2022/10/14 10:20:16;;;;;;;;;;;;;;;13.81;67.94;101309.19;5043606;28;19921;-65
2022/10/14 10:22:42;;;;;;;;;;;;;;;13.84;68.04;101299.25;5045092;28;20353;-64
2022/10/14 10:25:07;;;;;;;;;;;;;;;13.89;67.95;101304.25;5047924;28;20378;-65
2022/10/14 10:27:37;;;;;;;;;;;;;;;13.92;67.91;101304.06;5044529;28;19921;-64
2022/10/14 10:30:17;;;;;;;;;;;;;;;13.97;68.01;101309.06;5046648;28;19929;-65
2022/10/14 10:32:43;;;;;;;;;;;;;;;14.01;67.85;101300.81;5044148;28;19927;-63
2022/10/14 10:35:27;;;;;;;;;;;;;;;14.06;67.70;101305.84;5041972;28;19917;-65
2022/10/14 10:38:05;;;;;;;;;;;;;;;14.11;67.76;101298.44;5040241;28;20221;-65
2022/10/14 10:40:36;;;;;;;;;;;;;;;14.16;67.57;101295.50;5043514;28;19920;-64
2022/10/14 10:43:02;;;;;;;;;;;;;;;14.18;67.46;101293.59;5040209;28;20015;-65
2022/10/14 10:45:45;;;;;;;;;;;;;;;14.20;67.36;101297.00;5041261;28;19925;-64
2022/10/14 10:48:14;;;;;;;;;;;;;;;14.23;67.40;101288.00;5040484;28;19923;-65
2022/10/14 10:50:42;;;;;;;;;;;;;;;14.24;67.39;101289.72;5042491;28;19917;-65
2022/10/14 10:53:16;;;;;;;;;;;;;;;14.24;67.32;101290.56;5038884;28;19921;-64
2022/10/14 10:55:47;;;;;;;;;;;;;;;14.27;67.12;101278.94;5044903;28;19928;-64
2022/10/14 10:58:18;;;;;;;;;;;;;;;14.29;67.28;101280.50;5041092;28;19917;-62
2022/10/14 11:00:56;;;;;;;;;;;;;;;14.32;67.13;101287.44;5041543;28;20318;-63
2022/10/14 11:03:24;;;;;;;;;;;;;;;14.32;67.09;101280.31;5041375;28;19920;-65
2022/10/14 11:05:52;;;;;;;;;;;;;;;14.34;67.17;101285.53;5045963;28;20019;-65
2022/10/14 11:14:14;;;;;;;;;;;;;;;14.44;67.22;101275.19;5040190;28;19927;-63
2022/10/14 11:16:54;;;;;;;;;;;;;;;14.48;67.10;101277.53;5046676;28;19925;-65
2022/10/14 11:19:42;;;;;;;;;;;;;;;14.54;67.05;101267.47;5045102;28;19976;-62
2022/10/14 11:22:11;;;;;;;;;;;;;;;14.60;67.07;101259.97;5033443;28;19924;-62
2022/10/14 11:24:38;;;;;;;;;;;;;;;14.66;66.98;101252.56;5041366;28;20218;-61
2022/10/14 11:27:04;;;;;;;;;;;;;;;14.70;66.89;101254.09;5041739;28;20011;-64
2022/10/14 11:29:34;;;;;;;;;;;;;;;14.75;66.91;101251.97;5042113;28;19921;-64
2022/10/14 11:31:59;;;;;;;;;;;;;;;14.80;66.87;101249.88;5040489;28;19956;-65
2022/10/14 11:34:39;;;;;;;;;;;;;;;14.87;66.87;101250.31;5042384;28;20180;-64
2022/10/14 11:37:07;;;;;;;;;;;;;;;14.94;66.75;101244.47;5045596;28;19925;-65
2022/10/14 11:39:37;;;;;;;;;;;;;;;15.02;66.73;101240.47;5042799;28;19966;-63
2022/10/14 11:42:10;;;;;;;;;;;;;;;15.07;66.59;101233.03;5036193;28;20412;-65
2022/10/14 11:44:36;;;;;;;;;;;;;;;15.13;66.45;101229.97;5041661;28;19924;-61
2022/10/14 11:47:06;;;;;;;;;;;;;;;15.19;66.38;101240.16;5048084;28;19963;-59
2022/10/14 11:49:52;;;;;;;;;;;;;;;15.23;66.20;101228.38;5050696;28;19928;-59
2022/10/14 11:52:29;;;;;;;;;;;;;;;15.27;66.11;101223.72;5040244;28;20014;-63
2022/10/14 11:54:59;;;;;;;;;;;;;;;15.32;66.06;101226.03;5036817;28;19928;-62
2022/10/14 11:57:24;;;;;;;;;;;;;;;15.36;66.03;101224.84;5043911;28;20704;-59
2022/10/14 12:00:08;;;;;;;;;;;;;;;15.39;65.99;101225.50;5049757;28;20058;-63
2022/10/14 12:02:55;;;;;;;;;;;;;;;15.46;66.01;101225.91;5045966;28;19920;-63
2022/10/14 12:05:39;;;;;;;;;;;;;;;15.51;65.69;101217.63;5047067;28;19994;-62
2022/10/14 12:08:24;;;;;;;;;;;;;;;15.54;65.70;101218.25;5041193;28;20415;-64
2022/10/14 12:10:56;;;;;;;;;;;;;;;15.57;65.59;101211.03;5043543;28;19921;-65
2022/10/14 12:13:30;;;;;;;;;;;;;;;15.58;65.56;101212.72;5042852;28;20400;-65
2022/10/14 12:15:55;;;;;;;;;;;;;;;15.59;65.54;101206.47;5042400;28;19925;-64
2022/10/14 12:18:21;;;;;;;;;;;;;;;15.62;65.49;101214.22;5044029;28;19932;-65
2022/10/14 12:20:54;;;;;;;;;;;;;;;15.65;65.49;101208.69;5045172;28;20385;-65
2022/10/14 12:23:28;;;;;;;;;;;;;;;15.68;65.52;101213.75;5045788;28;19932;-65
2022/10/14 12:25:56;;;;;;;;;;;;;;;15.72;65.46;101204.63;5063319;28;20447;-65
2022/10/14 12:28:21;;;;;;;;;;;;;;;15.77;65.44;101202.50;5046032;28;19964;-62
2022/10/14 12:30:47;;;;;;;;;;;;;;;15.81;65.34;101201.28;5045138;28;20450;-62
2022/10/14 12:33:15;;;;;;;;;;;;;;;15.88;64.97;101198.25;5045902;28;19935;-63
2022/10/14 12:35:49;;;;;;;;;;;;;;;15.93;64.90;101204.06;5043222;28;19920;-61
2022/10/14 12:38:15;;;;;;;;;;;;;;;15.98;64.72;101193.94;5044340;28;19925;-62
2022/10/14 12:40:40;;;;;;;;;;;;;;;16.02;64.67;101199.91;5042791;28;20318;-62
2022/10/14 12:43:25;;;;;;;;;;;;;;;16.04;64.78;101198.81;5042206;28;19924;-65